Time;durP1;ratioP1;P1;durP2;ratioP2;P2;SDS_P1;SDS_P2;PMS_P1;PMS_P2;Temp;Humidity;BMP_temperature;BMP_pressure;BME280_temperature;BME280_humidity;BME280_pressure;Samples;Min_cycle;Max_cycle;Signal;HPM_P1;HPM_P2
2022/06/11 00:01:06;;;;;;;8.18;4.82;;;19.40;99.90;;;;;;5030894;28;20026;-66
2022/06/11 00:03:33;;;;;;;8.73;3.60;;;19.30;99.90;;;;;;5030851;28;20373;-66
2022/06/11 00:05:59;;;;;;;8.55;4.10;;;19.30;99.90;;;;;;5030720;28;20029;-66
2022/06/11 00:08:26;;;;;;;7.63;3.03;;;19.40;99.90;;;;;;5031283;28;20390;-66
2022/06/11 00:10:52;;;;;;;7.18;2.20;;;19.40;99.90;;;;;;5030504;28;20379;-66
2022/06/11 00:13:22;;;;;;;6.20;1.77;;;19.40;99.90;;;;;;5030963;28;20044;-66
2022/06/11 00:15:50;;;;;;;4.38;2.00;;;19.40;99.90;;;;;;5030827;28;20051;-66
2022/06/11 00:18:17;;;;;;;4.53;2.00;;;19.40;99.90;;;;;;5029573;28;20072;-66
2022/06/11 00:20:43;;;;;;;5.43;1.98;;;19.40;99.90;;;;;;5030666;28;20148;-66
2022/06/11 00:23:09;;;;;;;5.97;2.20;;;19.40;99.90;;;;;;5031388;28;20455;-66
2022/06/11 00:25:35;;;;;;;7.40;2.30;;;19.40;99.90;;;;;;5030486;28;20068;-65
2022/06/11 00:28:05;;;;;;;6.32;1.90;;;19.40;99.90;;;;;;5030579;28;20056;-66
2022/06/11 00:30:34;;;;;;;5.75;2.30;;;19.40;99.90;;;;;;5030395;28;20037;-66
2022/06/11 00:33:00;;;;;;;6.03;2.25;;;19.40;99.90;;;;;;5030486;28;20040;-67
2022/06/11 00:35:29;;;;;;;7.72;2.72;;;19.40;99.90;;;;;;5029062;28;20037;-66
2022/06/11 00:37:55;;;;;;;;;;;19.40;99.90;;;;;;5030903;28;20029;-66
2022/06/11 00:40:23;;;;;;;6.85;2.20;;;19.40;99.90;;;;;;5029871;28;19909;-66
2022/06/11 00:42:49;;;;;;;7.47;2.00;;;19.40;99.90;;;;;;5030939;28;20406;-66
2022/06/11 00:45:43;;;;;;;4.90;2.00;;;19.40;99.90;;;;;;5030316;28;20038;-66
2022/06/11 00:48:27;;;;;;;6.47;1.77;;;19.40;99.90;;;;;;5030318;28;20033;-66
2022/06/11 00:51:03;;;;;;;4.22;2.00;;;19.40;99.90;;;;;;5030358;28;20033;-66
2022/06/11 00:53:38;;;;;;;6.53;1.80;;;19.40;99.90;;;;;;5030503;28;20056;-66
2022/06/11 00:56:09;;;;;;;6.05;2.00;;;19.40;99.90;;;;;;5030213;28;20362;-66
2022/06/11 00:58:40;;;;;;;8.45;2.33;;;19.40;99.90;;;;;;5030261;28;20049;-66
2022/06/11 01:01:07;;;;;;;5.40;2.30;;;19.40;99.90;;;;;;5030319;28;20120;-66
2022/06/11 01:03:38;;;;;;;6.40;2.20;;;19.40;99.90;;;;;;5030493;28;20064;-66
2022/06/11 01:06:37;;;;;;;8.18;2.08;;;19.40;99.90;;;;;;5029387;28;20125;-66
2022/06/11 01:09:10;;;;;;;6.28;1.75;;;19.40;99.90;;;;;;5030235;28;20087;-66
2022/06/11 01:11:45;;;;;;;7.15;2.08;;;19.40;99.90;;;;;;5030087;28;20409;-66
2022/06/11 01:14:16;;;;;;;6.03;2.38;;;19.30;99.90;;;;;;5028737;28;20728;-66
2022/06/11 01:17:14;;;;;;;10.38;2.50;;;19.30;99.90;;;;;;5030095;28;20060;-66
2022/06/11 01:20:07;;;;;;;11.60;3.22;;;19.30;99.90;;;;;;5029963;28;20033;-66
2022/06/11 01:22:48;;;;;;;7.13;2.20;;;19.30;99.90;;;;;;5029919;28;20045;-66
2022/06/11 01:25:42;;;;;;;4.40;1.85;;;19.20;99.90;;;;;;5029707;28;20037;-66
2022/06/11 01:28:10;;;;;;;5.53;2.22;;;19.20;99.90;;;;;;5029884;28;20025;-66
2022/06/11 01:30:59;;;;;;;4.13;2.00;;;19.10;99.90;;;;;;5029820;28;20370;-66
2022/06/11 01:33:29;;;;;;;5.55;2.00;;;19.10;99.90;;;;;;5029890;28;20029;-66
2022/06/11 01:36:18;;;;;;;5.25;2.00;;;19.10;99.90;;;;;;5029749;28;20072;-66
2022/06/11 01:39:05;;;;;;;4.03;1.75;;;19.00;99.90;;;;;;5029688;28;20033;-67
2022/06/11 01:41:50;;;;;;;3.90;1.70;;;19.00;99.90;;;;;;5029219;28;20045;-66
2022/06/11 01:44:30;;;;;;;5.25;1.98;;;19.00;99.90;;;;;;5028616;28;20026;-66
2022/06/11 01:46:57;;;;;;;4.78;1.88;;;18.90;99.90;;;;;;5028504;28;20045;-66
2022/06/11 01:49:23;;;;;;;4.22;1.80;;;18.90;99.90;;;;;;5029456;28;20088;-66
2022/06/11 01:51:59;;;;;;;7.88;2.72;;;18.90;99.90;;;;;;5029452;28;20029;-66
2022/06/11 01:54:44;;;;;;;8.20;2.72;;;18.80;99.90;;;;;;5029337;28;20212;-66
2022/06/11 01:57:31;;;;;;;7.20;2.70;;;18.80;99.90;;;;;;5029552;28;20034;-66
2022/06/11 02:00:02;;;;;;;4.70;2.40;;;18.80;99.90;;;;;;5029464;28;20080;-66
2022/06/11 02:03:10;;;;;;;6.20;2.72;;;18.80;99.90;;;;;;5029797;28;20061;-66
2022/06/11 02:05:47;;;;;;;6.47;2.40;;;18.70;99.90;;;;;;5029543;28;20037;-66
2022/06/11 02:08:23;;;;;;;6.32;2.35;;;18.70;99.90;;;;;;5029555;28;20034;-66
2022/06/11 02:11:08;;;;;;;7.50;2.63;;;18.70;99.90;;;;;;5028871;28;20033;-66
2022/06/11 02:13:41;;;;;;;7.35;2.70;;;18.70;99.90;;;;;;5029745;28;20179;-66
2022/06/11 02:16:29;;;;;;;9.23;2.85;;;18.70;99.90;;;;;;5030299;28;20062;-66
2022/06/11 02:18:58;;;;;;;13.38;2.78;;;18.60;99.90;;;;;;5032860;28;20030;-66
2022/06/11 02:21:27;;;;;;;6.80;3.00;;;18.60;99.90;;;;;;5032956;28;20033;-66
2022/06/11 02:24:12;;;;;;;8.68;3.00;;;18.60;99.90;;;;;;5033594;28;20394;-66
2022/06/11 02:26:43;;;;;;;9.77;2.58;;;18.60;99.90;;;;;;5032829;28;20039;-66
2022/06/11 02:29:11;;;;;;;8.15;2.80;;;18.60;99.90;;;;;;5032827;28;20048;-66
2022/06/11 02:31:45;;;;;;;7.00;2.88;;;18.60;99.90;;;;;;5032906;28;20034;-66
2022/06/11 02:34:14;;;;;;;6.32;2.40;;;18.60;99.90;;;;;;5032777;28;20030;-66
2022/06/11 02:36:45;;;;;;;;;;;18.50;99.90;;;;;;5033405;28;20022;-66
2022/06/11 02:39:12;;;;;;;7.38;2.45;;;18.60;99.90;;;;;;5032293;28;19924;-65
2022/06/11 02:41:38;;;;;;;5.60;2.63;;;18.50;99.90;;;;;;5032713;28;20049;-66
2022/06/11 02:44:04;;;;;;;7.60;2.60;;;18.50;99.90;;;;;;5032757;28;20047;-66
2022/06/11 02:46:43;;;;;;;7.00;2.70;;;18.50;99.90;;;;;;5032714;28;20037;-66
2022/06/11 02:49:25;;;;;;;9.18;2.80;;;18.50;99.90;;;;;;5032551;28;20069;-66
2022/06/11 02:51:53;;;;;;;6.68;3.22;;;18.50;99.90;;;;;;5032955;28;20029;-66
2022/06/11 02:54:21;;;;;;;8.80;3.40;;;18.40;99.90;;;;;;5032003;28;20113;-66
2022/06/11 02:56:50;;;;;;;8.35;3.50;;;18.40;99.90;;;;;;5032318;28;20045;-66
2022/06/11 02:59:16;;;;;;;7.15;2.92;;;18.40;99.90;;;;;;5032169;28;20029;-66
2022/06/11 03:01:42;;;;;;;7.13;2.88;;;18.40;99.90;;;;;;5032360;28;20454;-66
2022/06/11 03:04:10;;;;;;;7.28;2.97;;;18.40;99.90;;;;;;5031086;28;20048;-66
2022/06/11 03:06:40;;;;;;;8.02;3.50;;;18.40;99.90;;;;;;5032315;28;20025;-66
2022/06/11 03:09:13;;;;;;;8.82;2.90;;;18.40;99.90;;;;;;5030846;28;20068;-66
2022/06/11 03:11:39;;;;;;;6.80;3.50;;;18.30;99.90;;;;;;5030893;28;20474;-66
2022/06/11 03:14:05;;;;;;;8.68;3.30;;;18.30;99.90;;;;;;5032192;28;20084;-66
2022/06/11 03:16:31;;;;;;;7.03;3.10;;;18.30;99.90;;;;;;5031874;28;20030;-66
2022/06/11 03:18:57;;;;;;;10.38;2.83;;;18.30;99.90;;;;;;5031962;28;20033;-66
2022/06/11 03:21:24;;;;;;;8.20;2.70;;;18.30;99.90;;;;;;5031587;28;20038;-66
2022/06/11 03:23:50;;;;;;;8.90;3.13;;;18.30;99.90;;;;;;5032060;28;20041;-66
2022/06/11 03:26:17;;;;;;;8.23;2.95;;;18.30;99.90;;;;;;5031391;28;20030;-66
2022/06/11 03:28:42;;;;;;;6.80;2.70;;;18.20;99.90;;;;;;5031118;28;20044;-66
2022/06/11 03:31:09;;;;;;;6.30;3.00;;;18.20;99.90;;;;;;5031729;28;20037;-66
2022/06/11 03:33:36;;;;;;;5.53;2.22;;;18.20;99.90;;;;;;5032589;28;20026;-66
2022/06/11 03:36:06;;;;;;;6.55;2.63;;;18.20;99.90;;;;;;5030696;28;20114;-66
2022/06/11 03:38:34;;;;;;;7.10;2.88;;;18.20;99.90;;;;;;5032311;28;20041;-66
2022/06/11 03:41:01;;;;;;;5.40;2.43;;;18.20;99.90;;;;;;5031999;28;20125;-66
2022/06/11 03:43:27;;;;;;;6.75;3.30;;;18.10;99.90;;;;;;5032500;28;20040;-66
2022/06/11 03:45:53;;;;;;;7.97;3.33;;;18.20;99.90;;;;;;5032357;28;20105;-66
2022/06/11 03:48:20;;;;;;;7.45;2.80;;;18.10;99.90;;;;;;5031738;28;20136;-66
2022/06/11 03:50:46;;;;;;;7.35;2.80;;;18.10;99.90;;;;;;5031836;28;20029;-66
2022/06/11 03:53:13;;;;;;;6.93;2.80;;;18.10;99.90;;;;;;5030698;28;20118;-66
2022/06/11 03:55:42;;;;;;;6.72;2.90;;;18.00;99.90;;;;;;5031588;28;20022;-66
2022/06/11 03:58:10;;;;;;;6.47;3.15;;;18.00;99.90;;;;;;5031946;28;20022;-65
2022/06/11 04:03:25;;;;;;;6.03;2.53;;;17.90;99.90;;;;;;5032124;28;20037;-66
2022/06/11 04:05:53;;;;;;;7.30;2.95;;;17.80;99.90;;;;;;5031359;28;20034;-66
2022/06/11 04:08:19;;;;;;;7.30;3.10;;;17.80;99.90;;;;;;5031462;28;20509;-66
2022/06/11 04:10:46;;;;;;;8.63;2.90;;;17.80;99.90;;;;;;5030756;28;20502;-66
2022/06/11 04:13:12;;;;;;;8.48;3.13;;;17.70;99.90;;;;;;5031194;28;20037;-66
2022/06/11 04:15:41;;;;;;;7.10;3.05;;;17.70;99.90;;;;;;5030923;28;20405;-66
2022/06/11 04:18:38;;;;;;;6.32;3.05;;;17.60;99.90;;;;;;5031389;28;20029;-66
2022/06/11 04:21:10;;;;;;;7.85;2.75;;;17.60;99.90;;;;;;5030698;28;20089;-66
2022/06/11 04:23:38;;;;;;;9.88;3.15;;;17.50;99.90;;;;;;5030967;28;20033;-66
2022/06/11 04:26:08;;;;;;;9.07;3.22;;;17.50;99.90;;;;;;5030373;28;20103;-66
2022/06/11 04:28:36;;;;;;;6.88;3.42;;;17.50;99.90;;;;;;5031114;28;20033;-66
2022/06/11 04:31:04;;;;;;;7.10;2.63;;;17.50;99.90;;;;;;5030879;28;20458;-66
2022/06/11 04:33:31;;;;;;;5.97;2.55;;;17.50;99.90;;;;;;5030814;28;20037;-66
2022/06/11 04:35:57;;;;;;;7.22;3.30;;;17.50;99.90;;;;;;5031075;28;20028;-66
2022/06/11 04:38:24;;;;;;;6.22;3.00;;;17.50;99.90;;;;;;5031150;28;20026;-66
2022/06/11 04:40:51;;;;;;;6.88;3.13;;;17.50;99.90;;;;;;5030153;28;20166;-66
2022/06/11 04:43:17;;;;;;;8.60;3.33;;;17.60;99.90;;;;;;5030826;28;20026;-66
2022/06/11 04:45:43;;;;;;;6.70;3.20;;;17.60;99.90;;;;;;5030391;28;20367;-66
2022/06/11 04:48:09;;;;;;;7.60;3.13;;;17.60;99.90;;;;;;5030475;28;20044;-66
2022/06/11 04:50:36;;;;;;;6.70;2.92;;;17.60;99.90;;;;;;5030404;28;20065;-66
2022/06/11 04:53:03;;;;;;;7.03;3.13;;;17.70;99.90;;;;;;5029265;28;20033;-66
2022/06/11 04:55:29;;;;;;;6.03;3.25;;;17.70;99.90;;;;;;5030235;28;20123;-65
2022/06/11 04:57:56;;;;;;;6.45;2.83;;;17.70;99.90;;;;;;5030283;28;20493;-67
2022/06/11 05:00:25;;;;;;;8.75;3.10;;;17.80;99.90;;;;;;5030202;28;20393;-65
2022/06/11 05:02:52;;;;;;;5.57;3.20;;;17.80;99.90;;;;;;5030477;28;20104;-66
2022/06/11 05:05:18;;;;;;;5.95;3.20;;;17.80;99.90;;;;;;5030251;28;20035;-66
2022/06/11 05:07:45;;;;;;;6.35;3.75;;;17.90;99.90;;;;;;5030018;28;20108;-66
2022/06/11 05:10:15;;;;;;;8.63;3.25;;;18.00;99.90;;;;;;5030011;28;20045;-66
2022/06/11 05:12:41;;;;;;;7.20;3.08;;;18.10;99.90;;;;;;5030161;28;20448;-66
2022/06/11 05:15:08;;;;;;;5.13;2.95;;;18.20;99.90;;;;;;5028775;28;20021;-66
2022/06/11 05:17:34;;;;;;;6.15;3.00;;;18.30;99.90;;;;;;5030116;28;20034;-66
2022/06/11 05:20:01;;;;;;;5.50;2.67;;;18.40;99.90;;;;;;5030122;28;20026;-66
2022/06/11 05:22:27;;;;;;;15.15;3.15;;;18.40;99.90;;;;;;5044514;22;20128;-65
2022/06/11 05:24:53;;;;;;;8.75;3.50;;;18.40;99.90;;;;;;5029807;28;20037;-65
2022/06/11 05:27:24;;;;;;;5.75;2.85;;;18.50;99.90;;;;;;5029785;28;20025;-65
2022/06/11 05:29:57;;;;;;;9.32;3.00;;;18.50;99.90;;;;;;5029905;28;20116;-66
2022/06/11 05:32:27;;;;;;;5.68;2.25;;;18.50;99.90;;;;;;5029949;28;20068;-64
2022/06/11 05:34:54;;;;;;;5.93;2.83;;;18.50;99.90;;;;;;5029917;28;20265;-65
2022/06/11 05:37:20;;;;;;;8.13;3.28;;;18.60;99.90;;;;;;5029762;28;20025;-65
2022/06/11 05:39:46;;;;;;;5.47;2.97;;;18.50;99.90;;;;;;5028957;28;20052;-65
2022/06/11 05:42:14;;;;;;;6.15;3.00;;;18.60;99.90;;;;;;5029910;28;20116;-65
2022/06/11 05:44:40;;;;;;;33.92;5.38;;;18.60;99.90;;;;;;5029621;28;20037;-66
2022/06/11 05:47:09;;;;;;;15.07;4.63;;;18.60;99.90;;;;;;5029593;28;20479;-65
2022/06/11 05:49:39;;;;;;;6.93;2.85;;;18.60;99.90;;;;;;5029689;28;20029;-65
2022/06/11 05:52:13;;;;;;;10.48;5.10;;;18.60;99.90;;;;;;5031850;28;20044;-65
2022/06/11 05:54:41;;;;;;;12.27;4.55;;;18.60;99.90;;;;;;5031720;28;20025;-65
2022/06/11 05:57:09;;;;;;;15.02;4.35;;;18.60;99.90;;;;;;5033336;28;20434;-65
2022/06/11 05:59:43;;;;;;;8.85;3.10;;;18.60;99.90;;;;;;5032027;28;20041;-65
2022/06/11 06:02:12;;;;;;;7.53;2.90;;;18.60;99.90;;;;;;5032005;28;20034;-65
2022/06/11 06:04:39;;;;;;;8.70;4.43;;;18.60;99.90;;;;;;5033345;28;20021;-65
2022/06/11 06:07:06;;;;;;;26.40;8.02;;;18.60;99.90;;;;;;5032013;28;20030;-66
2022/06/11 06:09:32;;;;;;;11.00;5.47;;;18.70;99.90;;;;;;5031555;28;20056;-67
2022/06/11 06:11:58;;;;;;;7.88;4.00;;;18.70;99.90;;;;;;5033436;28;20033;-66
2022/06/11 06:14:24;;;;;;;7.15;4.15;;;18.70;99.90;;;;;;5032980;28;20063;-65
2022/06/11 06:16:50;;;;;;;7.53;3.53;;;18.70;99.90;;;;;;5032893;28;20048;-66
2022/06/11 06:19:16;;;;;;;9.88;3.30;;;18.70;99.90;;;;;;5032742;28;20025;-66
2022/06/11 06:21:42;;;;;;;6.93;3.60;;;18.80;99.90;;;;;;5032744;28;20037;-65
2022/06/11 06:24:08;;;;;;;6.30;2.53;;;18.80;99.90;;;;;;5033293;28;20053;-66
2022/06/11 06:26:34;;;;;;;5.90;2.20;;;18.80;99.90;;;;;;5031382;28;20459;-66
2022/06/11 06:29:00;;;;;;;5.85;2.65;;;18.80;99.90;;;;;;5032791;28;20076;-66
2022/06/11 06:31:26;;;;;;;8.60;2.40;;;18.90;99.90;;;;;;5032753;28;20413;-66
2022/06/11 06:33:53;;;;;;;10.18;3.75;;;18.90;99.90;;;;;;5032887;28;20064;-66
2022/06/11 06:36:19;;;;;;;8.55;2.75;;;18.90;99.90;;;;;;5032656;28;20026;-65
2022/06/11 06:38:45;;;;;;;8.18;3.17;;;18.90;99.90;;;;;;5032561;28;20421;-66
2022/06/11 06:41:13;;;;;;;8.98;2.70;;;18.90;99.90;;;;;;5032398;28;20060;-66
2022/06/11 06:43:39;;;;;;;9.88;3.42;;;18.90;99.90;;;;;;5031478;28;20026;-66
2022/06/11 06:46:05;;;;;;;6.00;2.50;;;19.00;99.90;;;;;;5031194;28;20057;-66
2022/06/11 06:48:32;;;;;;;7.13;2.72;;;19.00;99.90;;;;;;5032669;28;20508;-66
2022/06/11 06:50:58;;;;;;;12.30;3.42;;;19.00;99.90;;;;;;5032701;28;20096;-66
2022/06/11 06:53:26;;;;;;;8.50;3.30;;;19.00;99.90;;;;;;5032695;28;20029;-66
2022/06/11 06:55:54;;;;;;;6.30;3.05;;;19.00;99.90;;;;;;5032241;28;20021;-66
2022/06/11 06:58:20;;;;;;;6.63;3.22;;;19.00;99.90;;;;;;5032513;28;20083;-66
2022/06/11 07:00:46;;;;;;;10.35;3.75;;;19.00;99.90;;;;;;5032463;28;20034;-66
2022/06/11 07:03:13;;;;;;;8.45;2.78;;;19.00;99.90;;;;;;5031423;28;20025;-65
2022/06/11 07:05:40;;;;;;;5.93;2.30;;;19.10;99.90;;;;;;5032507;28;20079;-65
2022/06/11 07:08:06;;;;;;;6.43;2.85;;;19.10;99.90;;;;;;5032967;28;20449;-65
2022/06/11 07:10:33;;;;;;;9.38;3.05;;;19.20;99.90;;;;;;5032167;28;20486;-65
2022/06/11 07:12:59;;;;;;;60.67;9.25;;;19.20;99.90;;;;;;5032834;28;20060;-65
2022/06/11 07:15:26;;;;;;;23.77;4.68;;;19.20;99.90;;;;;;5032558;28;20492;-65
2022/06/11 07:18:04;;;;;;;11.05;3.55;;;19.30;99.90;;;;;;5032268;28;20064;-66
2022/06/11 07:20:34;;;;;;;7.20;2.77;;;19.30;99.90;;;;;;5032494;28;20107;-66
2022/06/11 07:23:12;;;;;;;8.43;3.00;;;19.30;99.90;;;;;;5031450;28;20303;-65
2022/06/11 07:25:40;;;;;;;6.50;2.90;;;19.40;99.90;;;;;;5031907;28;20033;-65
2022/06/11 07:28:14;;;;;;;8.82;3.47;;;19.40;99.90;;;;;;5032318;28;20482;-66
2022/06/11 07:30:41;;;;;;;13.85;3.42;;;19.40;99.90;;;;;;5032587;28;20115;-66
2022/06/11 07:33:11;;;;;;;13.52;3.20;;;19.40;99.90;;;;;;5032101;28;20029;-66
2022/06/11 07:35:38;;;;;;;14.25;2.92;;;19.40;99.90;;;;;;5032443;28;20029;-66
2022/06/11 07:38:11;;;;;;;11.95;3.75;;;19.40;99.90;;;;;;5032095;28;20136;-66
2022/06/11 07:40:38;;;;;;;66.90;10.20;;;19.40;99.90;;;;;;5031415;28;20030;-67
2022/06/11 07:43:06;;;;;;;15.63;3.90;;;19.40;99.90;;;;;;5031904;28;20025;-66
2022/06/11 07:45:41;;;;;;;42.75;7.05;;;19.50;99.90;;;;;;5032245;28;20033;-66
2022/06/11 07:48:08;;;;;;;6.57;2.38;;;19.50;99.90;;;;;;5030231;28;20030;-66
2022/06/11 07:50:39;;;;;;;8.00;2.50;;;19.50;99.90;;;;;;5031541;28;20037;-66
2022/06/11 07:53:06;;;;;;;8.00;2.92;;;19.60;99.90;;;;;;5032319;28;20029;-66
2022/06/11 07:55:34;;;;;;;24.63;4.95;;;19.60;99.90;;;;;;5030172;28;20040;-66
2022/06/11 07:58:00;;;;;;;6.82;2.67;;;19.70;99.90;;;;;;5031627;28;20026;-66
2022/06/11 08:00:30;;;;;;;7.10;2.10;;;19.70;99.90;;;;;;5031565;28;20417;-66
2022/06/11 08:02:56;;;;;;;7.10;2.83;;;19.80;99.90;;;;;;5031696;28;20052;-66
2022/06/11 08:05:22;;;;;;;6.95;2.40;;;19.80;99.90;;;;;;5031548;28;20033;-66
2022/06/11 08:07:51;;;;;;;6.97;2.53;;;19.80;99.90;;;;;;5031475;28;20032;-66
2022/06/11 08:10:19;;;;;;;9.45;2.75;;;19.80;99.90;;;;;;5031192;28;20036;-66
2022/06/11 08:12:45;;;;;;;5.90;2.85;;;19.90;99.90;;;;;;5031692;28;20356;-66
2022/06/11 08:15:11;;;;;;;6.40;2.22;;;19.80;99.90;;;;;;5031519;28;20036;-66
2022/06/11 08:17:40;;;;;;;6.75;2.60;;;19.80;99.90;;;;;;5031465;28;20033;-67
2022/06/11 08:20:07;;;;;;;;;;;19.90;99.90;;;;;;5031764;28;20029;-66
2022/06/11 08:22:33;;;;;;;8.52;2.70;;;19.90;99.90;;;;;;5031333;28;19913;-66
2022/06/11 08:24:59;;;;;;;11.38;2.53;;;19.90;99.90;;;;;;5030916;28;20103;-66
2022/06/11 08:27:25;;;;;;;6.65;2.35;;;19.90;99.90;;;;;;5031190;28;20033;-66
2022/06/11 08:29:51;;;;;;;5.68;2.22;;;20.00;99.90;;;;;;5031006;28;20078;-66
2022/06/11 08:32:17;;;;;;;7.72;2.55;;;20.00;99.90;;;;;;5031589;28;20115;-66
2022/06/11 08:34:46;;;;;;;25.10;4.90;;;20.00;99.90;;;;;;5031017;28;20084;-66
2022/06/11 08:37:15;;;;;;;7.15;2.47;;;20.00;99.90;;;;;;5031020;28;20501;-66
2022/06/11 08:39:42;;;;;;;7.30;2.50;;;20.00;99.90;;;;;;5030523;28;20022;-66
2022/06/11 08:42:36;;;;;;;5.75;2.85;;;20.10;99.90;;;;;;5031290;28;20072;-66
2022/06/11 08:45:37;;;;;;;6.70;2.95;;;20.00;99.90;;;;;;5030857;28;20026;-67
2022/06/11 08:48:17;;;;;;;9.68;2.78;;;20.10;99.90;;;;;;5030713;28;20030;-66
2022/06/11 08:50:54;;;;;;;11.70;3.35;;;20.10;99.90;;;;;;5030834;28;20430;-66
2022/06/11 08:53:20;;;;;;;6.82;2.97;;;20.10;99.90;;;;;;5030875;28;20029;-67
2022/06/11 08:55:46;;;;;;;7.30;3.38;;;20.20;99.90;;;;;;5030074;28;20032;-66
2022/06/11 08:58:40;;;;;;;14.55;4.18;;;20.20;99.90;;;;;;5030674;28;20025;-67
2022/06/11 09:01:28;;;;;;;6.45;2.35;;;20.20;99.90;;;;;;5030971;28;20044;-66
2022/06/11 09:04:06;;;;;;;12.70;3.10;;;20.20;99.90;;;;;;5029680;28;20075;-66
2022/06/11 09:06:40;;;;;;;7.07;2.97;;;20.10;99.90;;;;;;5030712;28;20031;-67
2022/06/11 09:09:17;;;;;;;7.13;2.80;;;20.10;99.90;;;;;;5029519;28;20033;-66
2022/06/11 09:12:05;;;;;;;12.50;3.63;;;20.10;99.90;;;;;;5030767;28;20025;-67
2022/06/11 09:14:40;;;;;;;10.25;3.80;;;20.10;99.90;;;;;;5030437;28;20021;-66
2022/06/11 09:17:30;;;;;;;16.17;3.72;;;20.00;99.90;;;;;;5030469;28;20105;-66
2022/06/11 09:20:24;;;;;;;8.50;3.22;;;20.00;99.90;;;;;;5030323;28;20022;-66
2022/06/11 09:22:53;;;;;;;11.65;3.22;;;20.00;99.90;;;;;;5030462;28;20091;-66
2022/06/11 09:25:43;;;;;;;8.20;3.28;;;20.00;99.90;;;;;;5030074;28;20486;-66
2022/06/11 09:28:12;;;;;;;8.80;3.05;;;20.10;99.90;;;;;;5035419;28;20481;-66
2022/06/11 09:30:40;;;;;;;;;;;20.20;99.90;;;;;;5033650;28;20401;-67
2022/06/11 09:33:19;;;;;;;8.57;2.57;;;20.20;99.90;;;;;;5034595;28;19913;-66
2022/06/11 09:36:27;;;;;;;8.80;3.15;;;20.20;99.90;;;;;;5034608;28;20171;-66
2022/06/11 09:39:07;;;;;;;7.95;3.20;;;20.20;99.90;;;;;;5026917;28;20068;-66
2022/06/11 09:42:00;;;;;;;7.93;2.85;;;20.30;99.90;;;;;;5034353;28;20476;-66
2022/06/11 09:44:34;;;;;;;8.02;3.65;;;20.30;99.90;;;;;;5034570;28;20083;-66
2022/06/11 09:47:15;;;;;;;11.80;3.30;;;20.40;99.90;;;;;;5034355;28;20057;-67
2022/06/11 09:49:52;;;;;;;21.58;4.80;;;20.40;99.90;;;;;;5033991;28;20068;-66
2022/06/11 09:52:29;;;;;;;10.43;3.23;;;20.50;99.90;;;;;;5034177;28;20029;-66
2022/06/11 09:55:08;;;;;;;11.48;3.72;;;20.60;99.90;;;;;;5033841;28;20099;-66
2022/06/11 09:57:56;;;;;;;6.35;3.17;;;20.70;99.90;;;;;;5033966;28;20026;-66
2022/06/11 10:00:26;;;;;;;5.70;2.88;;;20.70;99.90;;;;;;5033460;28;20028;-66
2022/06/11 10:03:52;;;;;;;12.18;3.78;;;20.70;99.90;;;;;;5034126;28;20095;-66
2022/06/11 10:06:07;;;;;;;9.10;3.60;;;20.70;99.90;;;;;;5032993;28;20116;-66
2022/06/11 10:08:56;;;;;;;7.95;3.22;;;20.70;99.90;;;;;;5033728;28;20486;-66
2022/06/11 10:11:37;;;;;;;11.88;4.18;;;20.70;99.90;;;;;;5031739;28;20048;-66
2022/06/11 10:14:28;;;;;;;6.40;3.28;;;20.70;99.90;;;;;;5033664;28;20029;-66
2022/06/11 10:17:16;;;;;;;7.38;3.35;;;20.70;99.90;;;;;;5032070;28;20226;-66
2022/06/11 10:20:01;;;;;;;9.43;4.20;;;20.70;99.90;;;;;;5033308;28;20030;-66
2022/06/11 10:22:36;;;;;;;8.77;3.75;;;20.80;99.90;;;;;;5033743;28;20422;-66
2022/06/11 10:25:22;;;;;;;9.27;3.83;;;20.80;99.90;;;;;;5033546;28;20056;-66
2022/06/11 10:27:56;;;;;;;10.60;4.90;;;20.90;99.90;;;;;;5002382;28;20033;-66
2022/06/11 10:30:47;;;;;;;12.30;5.55;;;20.90;99.90;;;;;;5033139;28;20033;-66
2022/06/11 10:33:21;;;;;;;12.02;4.75;;;21.00;99.90;;;;;;5033690;28;20029;-66
2022/06/11 10:36:02;;;;;;;10.10;4.28;;;21.10;99.90;;;;;;5033100;28;20494;-66
2022/06/11 10:38:28;;;;;;;17.70;4.82;;;21.10;99.90;;;;;;5033087;28;20026;-66
2022/06/11 10:40:55;;;;;;;12.35;4.70;;;21.10;99.90;;;;;;5032818;28;20390;-66
2022/06/11 10:44:03;;;;;;;23.85;5.82;;;21.10;99.90;;;;;;5033250;28;20030;-67
2022/06/11 10:46:30;;;;;;;9.40;3.88;;;21.20;99.90;;;;;;5024859;28;20041;-66
2022/06/11 10:48:56;;;;;;;8.00;3.33;;;21.30;99.90;;;;;;5032783;28;20025;-66
2022/06/11 10:51:26;;;;;;;8.73;3.70;;;21.40;99.90;;;;;;5032938;28;20346;-66
2022/06/11 10:54:14;;;;;;;8.60;3.97;;;21.50;99.90;;;;;;5033166;28;20049;-66
2022/06/11 10:57:03;;;;;;;9.40;4.22;;;21.50;99.90;;;;;;5032543;28;20053;-66
2022/06/11 11:00:13;;;;;;;6.95;3.33;;;21.40;99.90;;;;;;5031966;28;20044;-67
2022/06/11 11:02:58;;;;;;;9.50;3.72;;;21.40;99.90;;;;;;4971692;28;20511;-66
2022/06/11 11:05:24;;;;;;;7.95;3.45;;;21.40;99.90;;;;;;5031645;28;20064;-65
2022/06/11 11:08:01;;;;;;;8.50;3.40;;;21.40;99.90;;;;;;5032652;28;20084;-66
2022/06/11 11:10:36;;;;;;;6.50;3.30;;;21.40;99.90;;;;;;5032100;28;20029;-66
2022/06/11 11:13:14;;;;;;;7.38;3.60;;;21.40;99.90;;;;;;5032404;28;20029;-66
2022/06/11 11:15:44;;;;;;;10.63;2.78;;;21.40;99.90;;;;;;5032391;28;20029;-66
2022/06/11 11:18:19;;;;;;;5.55;2.90;;;21.50;99.90;;;;;;5032382;28;20503;-66
2022/06/11 11:20:48;;;;;;;6.03;2.80;;;21.50;99.90;;;;;;5032249;28;20030;-66
2022/06/11 11:23:20;;;;;;;5.32;2.58;;;21.50;99.90;;;;;;5045990;22;20045;-67
2022/06/11 11:26:05;;;;;;;24.98;5.57;;;21.50;99.90;;;;;;5031517;28;20180;-67
2022/06/11 11:28:45;;;;;;;8.25;2.40;;;21.50;99.90;;;;;;5032130;28;20401;-66
2022/06/11 11:31:22;;;;;;;7.30;3.03;;;21.60;99.90;;;;;;5031823;28;20164;-67
2022/06/11 11:34:20;;;;;;;7.97;2.78;;;21.70;99.90;;;;;;5032044;28;20041;-68
2022/06/11 11:36:47;;;;;;;11.77;2.67;;;21.70;99.90;;;;;;4998232;28;20049;-67
2022/06/11 11:39:13;;;;;;;5.93;2.53;;;21.60;99.90;;;;;;5031707;28;20030;-67
2022/06/11 11:41:53;;;;;;;13.13;3.38;;;21.60;99.90;;;;;;5031282;28;20033;-67
2022/06/11 11:44:23;;;;;;;43.45;5.90;;;21.70;99.90;;;;;;5031724;28;20025;-67
2022/06/11 11:46:53;;;;;;;10.65;3.42;;;21.80;99.90;;;;;;5031335;28;20036;-67
2022/06/11 11:49:33;;;;;;;4.85;2.38;;;21.80;99.90;;;;;;5030849;28;20510;-67
2022/06/11 11:52:15;;;;;;;5.43;2.08;;;21.80;99.90;;;;;;5031218;28;20056;-67
2022/06/11 11:55:19;;;;;;;13.52;2.47;;;21.80;99.90;;;;;;5031584;28;20032;-67
2022/06/11 11:57:55;;;;;;;8.52;1.80;;;21.90;99.90;;;;;;5008774;28;20402;-67
2022/06/11 12:00:38;;;;;;;6.32;1.60;;;21.90;99.90;;;;;;5031319;28;20034;-66
2022/06/11 12:03:14;;;;;;;72.35;8.95;;;22.00;99.90;;;;;;5031522;28;20038;-66
2022/06/11 12:05:50;;;;;;;28.42;4.30;;;22.10;99.90;;;;;;5031222;28;20320;-67
2022/06/11 12:08:26;;;;;;;7.57;2.08;;;22.10;99.90;;;;;;5031294;28;20037;-67
2022/06/11 12:10:55;;;;;;;4.60;1.48;;;22.10;99.90;;;;;;5031100;28;20490;-67
2022/06/11 12:13:47;;;;;;;4.20;1.40;;;22.20;99.90;;;;;;5031154;28;20032;-66
2022/06/11 12:16:37;;;;;;;5.93;1.80;;;22.20;99.80;;;;;;5031235;28;20500;-67
2022/06/11 12:19:20;;;;;;;6.90;1.63;;;22.30;99.70;;;;;;5030534;28;20045;-66
2022/06/11 12:21:51;;;;;;;8.13;1.95;;;22.40;99.50;;;;;;5031024;28;20486;-67
2022/06/11 12:24:41;;;;;;;4.38;1.45;;;22.50;98.90;;;;;;5030896;28;20037;-66
2022/06/11 12:27:44;;;;;;;5.63;1.75;;;22.70;98.50;;;;;;5030627;28;20087;-67
2022/06/11 12:30:22;;;;;;;4.90;1.40;;;22.70;98.40;;;;;;4998102;28;20077;-66
2022/06/11 12:32:48;;;;;;;4.35;1.38;;;22.80;98.00;;;;;;5032157;28;20084;-67
2022/06/11 12:35:33;;;;;;;2.95;1.30;;;22.90;97.70;;;;;;5032258;28;20053;-67
2022/06/11 12:38:27;;;;;;;4.35;1.40;;;23.10;97.70;;;;;;5031043;28;20104;-67
2022/06/11 12:41:05;;;;;;;5.28;2.38;;;23.20;97.40;;;;;;5031225;28;20155;-67
2022/06/11 12:44:16;;;;;;;5.13;1.53;;;23.40;97.20;;;;;;5031864;28;20120;-67
2022/06/11 12:47:09;;;;;;;4.82;1.63;;;23.50;96.70;;;;;;4969400;28;20098;-68
2022/06/11 12:49:58;;;;;;;3.92;1.00;;;23.60;95.90;;;;;;5028981;28;20439;-67
2022/06/11 12:52:33;;;;;;;2.97;1.42;;;23.70;95.30;;;;;;5030822;28;20156;-66
2022/06/11 12:55:17;;;;;;;3.80;1.50;;;23.80;94.90;;;;;;5031058;28;20030;-67
2022/06/11 12:58:17;;;;;;;4.10;1.33;;;23.80;94.80;;;;;;5029876;28;20083;-66
2022/06/11 13:01:06;;;;;;;2.67;1.02;;;23.90;94.60;;;;;;5029847;28;20083;-67
2022/06/11 13:04:08;;;;;;;7.60;3.80;;;23.90;94.30;;;;;;5030581;28;20029;-67
2022/06/11 13:07:00;;;;;;;3.45;1.35;;;23.80;94.10;;;;;;5030709;28;20490;-67
2022/06/11 13:10:00;;;;;;;7.03;1.40;;;23.70;94.10;;;;;;5030746;28;20532;-66
2022/06/11 13:12:30;;;;;;;3.33;1.30;;;23.70;94.30;;;;;;4997057;28;20037;-67
2022/06/11 13:15:14;;;;;;;2.90;1.10;;;23.60;94.10;;;;;;5030985;28;20054;-67
2022/06/11 13:18:02;;;;;;;4.07;1.30;;;23.40;94.10;;;;;;5030768;28;20030;-67
2022/06/11 13:20:59;;;;;;;5.40;1.38;;;23.20;94.80;;;;;;5030816;28;20017;-66
2022/06/11 13:23:30;;;;;;;3.53;1.20;;;23.10;95.10;;;;;;5030670;28;20490;-66